Lakefront Airport New Orleans US
ICAO: KNEW
IATA: NEW
Category: Medium
Scheduled Services: No

Elevation: 8 ft
TransAlt. 18000 ft.

Airport Communications:
NEW ORLEANS APP/DEP:123.85
ATIS:124.9
CLNC DEL:119.9
CTAF:119.9
GND:121.7
ARNG OPS:141.35
DE RIDDER RDO:122.6
TWR:119.9
UNICOM:122.95

KNEW Zoom In..

If Map Doesn't Load, Click Here

Runways:

(A) RW 09 length 3114 ft width 75 ft
---- / hdg 87

(B) RW 18L length 3697 ft width 75 ft
---- / hdg 177

(C) RW 18R length 6879 ft width 150 ft
ILS 111.30 / hdg 177

(D) RW 27 length 3114 ft width 75 ft
---- / hdg 267

(E) RW 36L length 6879 ft width 150 ft
---- / hdg 357

(F) RW 36R length 3697 ft width 75 ft
---- / hdg 357

Location; KNEW
Day. 26 / Time. 09.53 Zulu
* Altimeter: 30.03
* Temperature: 25° c. 77°f.
* Wind from: 140° Speed 08 kn.
Dewpoint: 23° c.
Visibility: 10 Statute Miles.
Clouds: Few 3400 ft.
Clouds: Few 4800 ft.
Clouds: Overcast 6000 ft.

KNEW 260953Z AUTO 14008KT 10SM FEW034 FEW048 OVC060 25/23 A3003 RMK AO2 LTG DSNT N RAE41 SLP164 P0001 T02500233


Wind From 140°
Speed 08 kn.

 
 
jpsmedia.com for Web Design worldairports.se 2018   terms of use